Terminal Aerodrome Forecast
Issued by NWS

Home | Current Version | Previous Version | Graphics & Text | Print | Product List | Glossary On
Versions: 1 2 3 4 5 6 7 8 9 10 11 12 13 14 15 16 17 18
837
FTUS43 KICT 090538
TAFSLN
TAF
KSLN 090538Z 0906/1006 31013KT P6SM SCT250
     FM091400 33015KT P6SM SCT100
     FM091700 34016G23KT P6SM BKN100
     FM100000 VRB05KT P6SM BKN080=

USA.gov is the U.S. government's official web portal to all federal, state and local government web resources and services.